Time;durP1;ratioP1;P1;durP2;ratioP2;P2;SDS_P1;SDS_P2;PMS_P1;PMS_P2;Temp;Humidity;BMP_temperature;BMP_pressure;BME280_temperature;BME280_humidity;BME280_pressure;Samples;Min_cycle;Max_cycle;Signal;HPM_P1;HPM_P2
2021/12/01 00:00:14;;;;;;;5.97;4.10;;;17.80;43.20;;;;;;4982424;28;20228;-67
2021/12/01 00:02:42;;;;;;;7.00;3.80;;;17.80;43.20;;;;;;5000237;28;20247;-67
2021/12/01 00:05:10;;;;;;;4.82;3.63;;;17.70;43.10;;;;;;4982243;28;20204;-67
2021/12/01 00:07:36;;;;;;;6.63;3.72;;;17.70;43.20;;;;;;4982501;28;20688;-67
2021/12/01 00:10:04;;;;;;;4.57;3.47;;;17.70;43.20;;;;;;4999981;28;20198;-67
2021/12/01 00:12:32;;;;;;;5.57;3.30;;;17.70;43.10;;;;;;4982880;28;20693;-68
2021/12/01 00:15:00;;;;;;;4.82;3.10;;;17.70;43.30;;;;;;4999799;28;20200;-67
2021/12/01 00:17:27;;;;;;;5.13;3.50;;;17.70;43.20;;;;;;4982234;28;20202;-67
2021/12/01 00:19:54;;;;;;;4.90;3.50;;;17.70;43.20;;;;;;4982233;28;20570;-67
2021/12/01 00:22:21;;;;;;;5.45;3.55;;;17.70;43.30;;;;;;4982151;28;20189;-67
2021/12/01 00:24:48;;;;;;;4.22;3.42;;;17.60;43.20;;;;;;4982610;28;20255;-66
2021/12/01 00:27:15;;;;;;;7.22;3.35;;;17.60;43.30;;;;;;4999445;28;20213;-68
2021/12/01 00:29:42;;;;;;;5.38;3.35;;;17.60;43.30;;;;;;4982169;28;20205;-67
2021/12/01 00:32:11;;;;;;;4.75;3.20;;;17.60;43.30;;;;;;4999423;28;20685;-67
2021/12/01 00:34:38;;;;;;;7.20;3.70;;;17.60;43.30;;;;;;4981954;28;20197;-66
2021/12/01 00:37:05;;;;;;;4.80;2.72;;;17.60;43.40;;;;;;4981939;28;20225;-67
2021/12/01 00:39:32;;;;;;;3.75;3.05;;;17.50;43.20;;;;;;4982032;28;20216;-66
2021/12/01 00:42:00;;;;;;;4.70;3.10;;;17.50;43.30;;;;;;4981949;28;20701;-67
2021/12/01 00:44:29;;;;;;;5.18;3.08;;;17.50;43.40;;;;;;4981963;28;20236;-67
2021/12/01 00:47:05;;;;;;;4.10;3.03;;;17.50;43.50;;;;;;4981824;28;20279;-66
2021/12/01 00:49:34;;;;;;;4.22;3.00;;;17.50;43.40;;;;;;4999431;28;20184;-67
2021/12/01 00:52:01;;;;;;;4.30;3.00;;;17.40;43.60;;;;;;4979217;28;20602;-68
2021/12/01 00:54:28;;;;;;;4.13;2.70;;;17.40;43.50;;;;;;4996338;28;20193;-67
2021/12/01 00:56:55;;;;;;;3.88;2.75;;;17.40;43.40;;;;;;4978748;28;20286;-67
2021/12/01 00:59:22;;;;;;;3.90;2.80;;;17.50;43.70;;;;;;4978773;28;20193;-67
2021/12/01 01:01:49;;;;;;;4.07;2.78;;;17.40;43.40;;;;;;4978680;28;20208;-67
2021/12/01 01:04:17;;;;;;;4.03;2.90;;;17.40;43.60;;;;;;4978754;28;20193;-67
2021/12/01 01:06:45;;;;;;;3.40;3.00;;;17.40;43.60;;;;;;4978488;28;20217;-67
2021/12/01 01:09:12;;;;;;;3.28;2.53;;;17.30;43.60;;;;;;4996143;28;20221;-67
2021/12/01 01:17:12;;;;;;;4.75;2.97;;;17.30;43.70;;;;;;4978327;28;20221;-67
2021/12/01 01:19:39;;;;;;;4.32;2.90;;;17.30;43.60;;;;;;4978424;28;20204;-67
2021/12/01 01:22:08;;;;;;;3.55;2.95;;;17.30;43.70;;;;;;4978376;28;20225;-67
2021/12/01 01:24:35;;;;;;;2.90;2.55;;;17.30;43.60;;;;;;4978211;28;20209;-67
2021/12/01 01:27:02;;;;;;;4.03;2.47;;;17.30;43.60;;;;;;4978197;28;20224;-67
2021/12/01 01:29:33;;;;;;;4.28;2.85;;;17.30;43.60;;;;;;4978235;28;20733;-67
2021/12/01 01:32:01;;;;;;;3.90;2.72;;;17.30;43.60;;;;;;4978049;28;20264;-67
2021/12/01 01:34:29;;;;;;;3.78;2.70;;;17.30;43.60;;;;;;4978130;28;20212;-66
2021/12/01 01:36:56;;;;;;;3.53;2.70;;;17.30;43.70;;;;;;4978132;28;20701;-67
2021/12/01 01:39:24;;;;;;;2.85;2.55;;;17.20;43.60;;;;;;4995567;28;20189;-67
2021/12/01 01:41:52;;;;;;;3.83;2.28;;;17.20;43.60;;;;;;4978101;28;20633;-67
2021/12/01 01:44:19;;;;;;;3.22;2.45;;;17.20;43.60;;;;;;4977962;28;20288;-67
2021/12/01 01:46:46;;;;;;;3.47;2.78;;;17.20;43.60;;;;;;4977847;28;20715;-67
2021/12/01 01:49:17;;;;;;;4.43;2.60;;;17.20;43.60;;;;;;4977923;28;20276;-66
2021/12/01 01:51:44;;;;;;;4.88;2.60;;;17.20;43.60;;;;;;4977937;28;20229;-67
2021/12/01 01:54:12;;;;;;;3.22;2.80;;;17.10;43.50;;;;;;4977631;28;20272;-65
2021/12/01 01:56:40;;;;;;;3.38;2.40;;;17.10;43.50;;;;;;4977585;28;20320;-66
2021/12/01 01:59:07;;;;;;;3.53;2.40;;;17.10;43.50;;;;;;4977643;28;20190;-67
2021/12/01 02:01:44;;;;;;;3.38;2.20;;;17.10;43.50;;;;;;4977700;28;20595;-66
2021/12/01 02:04:12;;;;;;;3.50;2.60;;;17.10;43.60;;;;;;4994755;28;20186;-67
2021/12/01 02:06:39;;;;;;;2.55;2.35;;;17.10;43.60;;;;;;4977447;28;20248;-64
2021/12/01 02:09:06;;;;;;;2.63;2.15;;;17.10;43.70;;;;;;4977390;28;20244;-65
2021/12/01 02:11:34;;;;;;;2.53;2.33;;;17.10;43.80;;;;;;4977690;28;20614;-63
2021/12/01 02:14:03;;;;;;;2.78;2.13;;;17.10;43.70;;;;;;4977279;28;20245;-66
2021/12/01 02:16:30;;;;;;;2.88;2.30;;;17.10;43.90;;;;;;4977147;28;20221;-65
2021/12/01 02:18:57;;;;;;;3.17;2.40;;;17.00;43.70;;;;;;4977434;28;20208;-66
2021/12/01 02:21:27;;;;;;;3.08;2.35;;;17.10;43.90;;;;;;4977598;28;20576;-64
2021/12/01 02:23:55;;;;;;;2.85;2.10;;;17.10;43.70;;;;;;4977318;28;20205;-67
2021/12/01 02:26:22;;;;;;;2.40;2.00;;;17.00;43.70;;;;;;4977062;28;20768;-64
2021/12/01 02:28:51;;;;;;;2.85;2.20;;;17.00;43.70;;;;;;4994478;28;20607;-67
2021/12/01 02:31:18;;;;;;;3.22;2.20;;;17.00;43.80;;;;;;4976994;28;20573;-65
2021/12/01 02:33:45;;;;;;;3.15;2.30;;;17.00;43.70;;;;;;4994369;28;20217;-66
2021/12/01 02:36:12;;;;;;;2.33;2.00;;;17.00;43.70;;;;;;4976814;28;20236;-64
2021/12/01 02:38:42;;;;;;;2.35;2.10;;;17.00;43.80;;;;;;4977026;28;20271;-63
2021/12/01 02:41:09;;;;;;;2.45;2.15;;;17.00;43.80;;;;;;4994444;28;20268;-66
2021/12/01 02:43:37;;;;;;;2.97;2.10;;;17.00;43.90;;;;;;4976940;28;20626;-66
2021/12/01 02:46:04;;;;;;;2.10;1.90;;;17.00;43.90;;;;;;4976854;28;20213;-65
2021/12/01 02:48:34;;;;;;;2.20;2.00;;;17.00;43.90;;;;;;4976905;28;20205;-64
2021/12/01 02:51:03;;;;;;;2.22;2.03;;;16.90;43.90;;;;;;4976713;28;20247;-64
2021/12/01 02:53:31;;;;;;;2.85;2.15;;;16.90;43.80;;;;;;4976692;28;20312;-64
2021/12/01 02:56:00;;;;;;;2.13;1.90;;;16.90;43.90;;;;;;4976451;28;20225;-66
2021/12/01 02:58:29;;;;;;;2.30;1.73;;;16.90;43.90;;;;;;4976825;28;20209;-66
2021/12/01 03:01:01;;;;;;;2.42;1.75;;;16.90;43.80;;;;;;4976594;28;20200;-65
2021/12/01 03:03:27;;;;;;;1.92;1.80;;;16.90;43.80;;;;;;4976966;28;20194;-66
2021/12/01 03:05:54;;;;;;;3.05;1.98;;;16.90;43.90;;;;;;4976479;28;20761;-64
2021/12/01 03:08:21;;;;;;;2.40;2.20;;;16.90;43.90;;;;;;4976316;28;20296;-63
2021/12/01 03:10:50;;;;;;;2.50;2.10;;;16.90;44.00;;;;;;4976418;28;20209;-65
2021/12/01 03:13:19;;;;;;;3.17;2.10;;;16.90;44.10;;;;;;4976346;28;20221;-65
2021/12/01 03:15:46;;;;;;;3.20;1.85;;;16.90;43.90;;;;;;4975602;28;20315;-65
2021/12/01 03:18:14;;;;;;;2.28;2.08;;;16.90;44.60;;;;;;4976923;28;20595;-64
2021/12/01 03:20:41;;;;;;;1.88;1.70;;;16.80;43.90;;;;;;4976322;28;20194;-66
2021/12/01 03:23:08;;;;;;;2.25;1.80;;;16.90;44.00;;;;;;4976116;28;20204;-65
2021/12/01 03:25:35;;;;;;;1.80;1.65;;;16.80;43.90;;;;;;4993579;28;20264;-66
2021/12/01 03:28:03;;;;;;;2.28;1.95;;;16.80;43.90;;;;;;4993587;28;20198;-66
2021/12/01 03:30:33;;;;;;;1.85;1.70;;;16.80;43.90;;;;;;4993633;28;20197;-66
2021/12/01 03:33:02;;;;;;;2.72;1.92;;;16.80;43.90;;;;;;4976096;28;20305;-66
2021/12/01 03:35:30;;;;;;;2.20;2.00;;;16.80;43.90;;;;;;4976156;28;20214;-65
2021/12/01 03:37:57;;;;;;;1.88;1.77;;;16.80;44.00;;;;;;4993426;28;20254;-66
2021/12/01 03:40:24;;;;;;;1.92;1.80;;;16.80;44.00;;;;;;4976083;28;20201;-64
2021/12/01 03:42:51;;;;;;;2.40;2.00;;;16.80;44.00;;;;;;4976226;28;20225;-66
2021/12/01 03:45:18;;;;;;;1.95;1.73;;;16.80;44.00;;;;;;4975982;28;20221;-66
2021/12/01 03:47:47;;;;;;;1.90;1.80;;;16.80;44.10;;;;;;4975977;28;20201;-66
2021/12/01 03:50:14;;;;;;;2.38;1.80;;;16.80;44.10;;;;;;4976087;28;20201;-66
2021/12/01 03:52:41;;;;;;;2.25;1.98;;;16.80;44.10;;;;;;4993285;28;20204;-66
2021/12/01 03:55:08;;;;;;;1.95;1.85;;;16.80;44.10;;;;;;4975809;28;20204;-66
2021/12/01 03:57:36;;;;;;;2.05;1.83;;;16.80;44.10;;;;;;4976001;28;20197;-65
2021/12/01 04:00:04;;;;;;;2.17;1.98;;;16.70;44.10;;;;;;4975907;28;20212;-66
2021/12/01 04:02:39;;;;;;;1.77;1.67;;;16.70;44.20;;;;;;4993328;28;20186;-66
2021/12/01 04:05:08;;;;;;;1.95;1.70;;;16.70;44.20;;;;;;4975905;28;20215;-66
2021/12/01 04:07:35;;;;;;;1.92;1.80;;;16.70;44.20;;;;;;4993216;28;20197;-66
2021/12/01 04:10:02;;;;;;;2.20;1.80;;;16.70;44.10;;;;;;4975808;28;20256;-66
2021/12/01 04:12:29;;;;;;;1.70;1.60;;;16.70;44.20;;;;;;4993345;28;20268;-65
2021/12/01 04:14:56;;;;;;;2.25;1.60;;;16.70;44.20;;;;;;4993191;28;20216;-66
2021/12/01 04:17:24;;;;;;;1.70;1.60;;;16.70;44.30;;;;;;4976078;28;20303;-65
2021/12/01 04:19:50;;;;;;;1.50;1.40;;;16.70;44.40;;;;;;4994106;28;20213;-65
2021/12/01 04:22:19;;;;;;;1.73;1.63;;;16.70;44.40;;;;;;4993927;28;20200;-66
2021/12/01 04:24:46;;;;;;;1.98;1.48;;;16.70;44.40;;;;;;4976193;28;20654;-66
2021/12/01 04:27:13;;;;;;;1.50;1.40;;;16.70;44.30;;;;;;4978416;28;20217;-66
2021/12/01 04:29:40;;;;;;;1.88;1.67;;;16.70;44.30;;;;;;4979402;28;20562;-66
2021/12/01 04:32:08;;;;;;;1.77;1.67;;;16.70;44.30;;;;;;4979317;28;20204;-66
2021/12/01 04:34:35;;;;;;;1.75;1.65;;;16.70;44.30;;;;;;4979268;28;20237;-66
2021/12/01 04:37:02;;;;;;;1.80;1.70;;;16.70;44.30;;;;;;4996871;28;20220;-66
2021/12/01 04:39:30;;;;;;;1.60;1.50;;;16.70;44.20;;;;;;4979290;28;20260;-66
2021/12/01 04:42:04;;;;;;;1.50;1.40;;;16.60;44.20;;;;;;4979214;28;20251;-65
2021/12/01 04:44:31;;;;;;;1.52;1.42;;;16.70;44.20;;;;;;4979413;28;20665;-66
2021/12/01 04:46:58;;;;;;;1.40;1.30;;;16.70;44.10;;;;;;4978874;28;20760;-66
2021/12/01 04:49:26;;;;;;;1.63;1.52;;;16.70;44.10;;;;;;4978976;28;20207;-66
2021/12/01 04:51:56;;;;;;;2.47;1.60;;;16.80;44.10;;;;;;4996463;28;20217;-66
2021/12/01 04:54:24;;;;;;;2.15;1.70;;;16.70;44.10;;;;;;4978800;28;20571;-66
2021/12/01 04:56:53;;;;;;;3.15;1.80;;;16.80;44.00;;;;;;4978699;28;20222;-67
2021/12/01 04:59:20;;;;;;;1.50;1.40;;;16.80;44.00;;;;;;4996258;28;20557;-66
2021/12/01 05:01:47;;;;;;;1.40;1.30;;;16.80;44.00;;;;;;4996218;28;20194;-66
2021/12/01 05:04:14;;;;;;;1.60;1.50;;;16.80;43.90;;;;;;4978901;28;20658;-66
2021/12/01 05:06:41;;;;;;;1.60;1.50;;;16.80;43.80;;;;;;4978616;28;20229;-65
2021/12/01 05:09:09;;;;;;;1.52;1.42;;;16.90;43.90;;;;;;4978653;28;20202;-65
2021/12/01 05:11:38;;;;;;;1.60;1.50;;;16.90;43.90;;;;;;4978542;28;20700;-65
2021/12/01 05:14:07;;;;;;;2.10;1.52;;;16.90;43.80;;;;;;4978729;28;20225;-66
2021/12/01 05:16:35;;;;;;;1.20;1.20;;;16.90;43.80;;;;;;4995875;28;20586;-66
2021/12/01 05:19:02;;;;;;;1.95;1.65;;;16.90;43.70;;;;;;4978471;28;20204;-66
2021/12/01 05:21:29;;;;;;;1.48;1.38;;;17.00;43.80;;;;;;4978561;28;20197;-66
2021/12/01 05:23:56;;;;;;;1.70;1.60;;;17.00;43.70;;;;;;4978423;28;20205;-66
2021/12/01 05:26:23;;;;;;;1.70;1.60;;;17.00;43.60;;;;;;4995802;28;20216;-65
2021/12/01 05:28:50;;;;;;;1.70;1.60;;;17.00;43.40;;;;;;4978326;28;20209;-66
2021/12/01 05:31:18;;;;;;;1.77;1.65;;;17.00;43.40;;;;;;4995774;28;20209;-66
2021/12/01 05:33:46;;;;;;;1.40;1.30;;;17.00;43.40;;;;;;4978310;28;20224;-63
2021/12/01 05:36:13;;;;;;;1.90;1.52;;;17.10;43.50;;;;;;4978576;28;20214;-64
2021/12/01 05:38:41;;;;;;;1.60;1.50;;;17.10;43.50;;;;;;4995109;28;20559;-64
2021/12/01 05:41:08;;;;;;;1.73;1.63;;;17.10;43.50;;;;;;4995785;28;20193;-65
2021/12/01 05:43:35;;;;;;;1.52;1.40;;;17.10;43.50;;;;;;4978492;28;20202;-66
2021/12/01 05:46:02;;;;;;;1.65;1.55;;;17.10;43.50;;;;;;4995878;28;20771;-66
2021/12/01 05:48:31;;;;;;;1.42;1.33;;;17.10;43.40;;;;;;4978483;28;20206;-64
2021/12/01 05:50:57;;;;;;;1.63;1.52;;;17.20;43.50;;;;;;4978308;28;20202;-65
2021/12/01 05:53:25;;;;;;;1.70;1.60;;;17.20;43.40;;;;;;4996139;28;20248;-66
2021/12/01 05:55:52;;;;;;;1.50;1.40;;;17.20;43.40;;;;;;4978673;28;20233;-65
2021/12/01 05:58:19;;;;;;;1.58;1.48;;;17.20;43.30;;;;;;4978458;28;20194;-66
2021/12/01 06:00:46;;;;;;;1.50;1.40;;;17.20;43.20;;;;;;4978392;28;20525;-66
2021/12/01 06:03:13;;;;;;;2.38;1.52;;;17.20;43.20;;;;;;4978179;28;20201;-65
2021/12/01 06:05:43;;;;;;;1.40;1.30;;;17.30;43.20;;;;;;4978396;28;20709;-65
2021/12/01 06:08:10;;;;;;;1.67;1.58;;;17.30;43.10;;;;;;4997034;28;20689;-65
2021/12/01 06:10:38;;;;;;;1.50;1.40;;;17.40;43.10;;;;;;4980678;28;20209;-65
2021/12/01 06:13:05;;;;;;;1.60;1.50;;;17.40;43.20;;;;;;4980121;28;20205;-65
2021/12/01 06:15:32;;;;;;;3.00;1.45;;;17.40;43.20;;;;;;4978897;28;20315;-66
2021/12/01 06:17:59;;;;;;;2.45;1.45;;;17.40;43.40;;;;;;4978581;28;20260;-65
2021/12/01 06:20:26;;;;;;;1.60;1.50;;;17.40;43.60;;;;;;4978812;28;20711;-66
2021/12/01 06:22:54;;;;;;;2.30;1.60;;;17.40;43.80;;;;;;4996653;28;20189;-65
2021/12/01 06:25:21;;;;;;;2.00;1.48;;;17.50;43.90;;;;;;4979894;28;20217;-65
2021/12/01 06:27:48;;;;;;;1.40;1.40;;;17.50;44.30;;;;;;4984153;28;20225;-68
2021/12/01 06:30:15;;;;;;;1.27;1.20;;;17.50;44.20;;;;;;5001001;28;20256;-68
2021/12/01 06:32:42;;;;;;;1.70;1.50;;;17.50;44.20;;;;;;4979341;28;20212;-65
2021/12/01 06:35:09;;;;;;;1.58;1.48;;;17.50;44.20;;;;;;4978698;28;20592;-67
2021/12/01 06:37:36;;;;;;;1.85;1.30;;;17.50;44.30;;;;;;4978713;28;20197;-65
2021/12/01 06:40:05;;;;;;;1.70;1.60;;;17.60;44.20;;;;;;4978064;28;20581;-65
2021/12/01 06:42:35;;;;;;;1.40;1.30;;;17.60;44.00;;;;;;5002629;23;20319;-55
2021/12/01 06:45:04;;;;;;;1.48;1.38;;;17.60;44.10;;;;;;5013294;28;20185;-56
2021/12/01 06:47:31;;;;;;;1.50;1.40;;;17.60;44.10;;;;;;4995695;28;20566;-55
2021/12/01 06:49:59;;;;;;;1.50;1.40;;;17.70;43.90;;;;;;5012255;28;20193;-55
2021/12/01 06:52:27;;;;;;;1.48;1.38;;;17.70;43.90;;;;;;5013499;28;20216;-57
2021/12/01 06:54:57;;;;;;;2.63;1.40;;;17.70;43.90;;;;;;5013240;28;20208;-55
2021/12/01 06:57:27;;;;;;;1.42;1.33;;;17.70;43.70;;;;;;4995502;28;20193;-55
2021/12/01 06:59:54;;;;;;;1.92;1.25;;;17.70;43.60;;;;;;4995286;28;20197;-55
2021/12/01 07:02:21;;;;;;;1.50;1.40;;;17.70;43.60;;;;;;5012945;28;20208;-55
2021/12/01 07:04:49;;;;;;;1.38;1.27;;;17.70;43.60;;;;;;4995139;28;20201;-55
2021/12/01 07:07:17;;;;;;;1.60;1.50;;;17.80;43.40;;;;;;5013005;28;20191;-55
2021/12/01 07:09:49;;;;;;;1.55;1.40;;;17.70;43.40;;;;;;5013651;28;20279;-55
2021/12/01 07:12:17;;;;;;;1.55;1.40;;;17.80;43.40;;;;;;5013999;28;20216;-55
2021/12/01 07:14:46;;;;;;;1.60;1.50;;;17.70;43.40;;;;;;5013322;28;20692;-55
2021/12/01 07:17:13;;;;;;;1.85;1.38;;;17.70;44.10;;;;;;5013377;28;20262;-55
2021/12/01 07:19:40;;;;;;;1.48;1.38;;;17.70;43.60;;;;;;5013301;28;20614;-55
2021/12/01 07:22:08;;;;;;;1.50;1.40;;;17.80;43.60;;;;;;5230307;22;20555;-67
2021/12/01 07:24:35;;;;;;;1.95;1.40;;;17.80;43.20;;;;;;5171520;23;20233;-66
2021/12/01 07:27:03;;;;;;;1.75;1.42;;;17.80;43.20;;;;;;4976133;28;20202;-67
2021/12/01 07:29:31;;;;;;;1.33;1.27;;;17.80;43.10;;;;;;4976068;28;20193;-66
2021/12/01 07:31:59;;;;;;;1.30;1.20;;;17.80;42.90;;;;;;4977694;28;20251;-67
2021/12/01 07:34:27;;;;;;;1.77;1.40;;;17.90;43.10;;;;;;4977754;28;20229;-66
2021/12/01 07:36:54;;;;;;;1.40;1.30;;;17.80;42.90;;;;;;4977975;28;20304;-66
2021/12/01 07:39:21;;;;;;;1.58;1.40;;;17.90;43.00;;;;;;4977601;28;20267;-67
2021/12/01 07:41:49;;;;;;;1.20;1.10;;;17.90;43.00;;;;;;4976287;28;20218;-67
2021/12/01 07:44:16;;;;;;;1.35;1.20;;;17.90;43.00;;;;;;4975996;28;20231;-67
2021/12/01 07:46:43;;;;;;;1.58;1.40;;;17.90;42.90;;;;;;4975930;28;20578;-66
2021/12/01 07:49:11;;;;;;;1.67;1.50;;;18.00;43.00;;;;;;4975799;28;20247;-67
2021/12/01 07:51:38;;;;;;;1.40;1.30;;;17.90;42.80;;;;;;4975884;28;20217;-67
2021/12/01 07:54:05;;;;;;;3.35;1.50;;;17.90;42.80;;;;;;4975567;28;20205;-66
2021/12/01 07:56:32;;;;;;;1.50;1.40;;;17.90;42.70;;;;;;4975464;28;20639;-67
2021/12/01 07:59:00;;;;;;;1.20;1.20;;;18.00;42.90;;;;;;4993332;28;20202;-67
2021/12/01 08:01:27;;;;;;;1.45;1.35;;;18.00;42.80;;;;;;4976891;28;20219;-66
2021/12/01 08:03:54;;;;;;;2.22;1.40;;;18.00;42.80;;;;;;4980176;28;20291;-67
2021/12/01 08:06:23;;;;;;;2.15;1.30;;;18.00;42.80;;;;;;4997013;28;20264;-67
2021/12/01 08:08:50;;;;;;;2.03;1.40;;;18.00;42.80;;;;;;4979725;28;20200;-67
2021/12/01 08:11:17;;;;;;;1.50;1.40;;;18.10;42.80;;;;;;4979813;28;20576;-67
2021/12/01 08:13:45;;;;;;;2.58;1.20;;;18.10;42.70;;;;;;4979470;28;20194;-66
2021/12/01 08:16:12;;;;;;;1.20;1.20;;;18.10;42.60;;;;;;4979358;28;20217;-67
2021/12/01 08:18:39;;;;;;;1.35;1.30;;;18.10;42.50;;;;;;4997207;28;20194;-67
2021/12/01 08:21:06;;;;;;;1.20;1.10;;;18.10;42.40;;;;;;4979410;28;20624;-67
2021/12/01 08:23:34;;;;;;;1.33;1.23;;;18.10;42.50;;;;;;4996808;28;20652;-66
2021/12/01 08:26:02;;;;;;;1.50;1.40;;;18.20;42.30;;;;;;4996777;28;20178;-67
2021/12/01 08:28:29;;;;;;;1.58;1.42;;;18.20;42.30;;;;;;4996828;28;20592;-67
2021/12/01 08:30:56;;;;;;;1.63;1.38;;;18.20;42.40;;;;;;4996926;28;20194;-67
2021/12/01 08:33:23;;;;;;;1.65;1.55;;;18.20;42.20;;;;;;4979283;28;20221;-67
2021/12/01 08:35:51;;;;;;;1.50;1.40;;;18.30;42.20;;;;;;4979406;28;20214;-67
2021/12/01 08:38:18;;;;;;;1.90;1.40;;;18.30;42.10;;;;;;4980384;28;20217;-66
2021/12/01 08:40:47;;;;;;;1.40;1.30;;;18.30;42.20;;;;;;4997061;28;20192;-67
2021/12/01 08:43:14;;;;;;;1.48;1.38;;;18.40;42.10;;;;;;4979055;28;20305;-66
2021/12/01 08:45:41;;;;;;;1.40;1.30;;;18.40;42.10;;;;;;4979138;28;20203;-66
2021/12/01 08:48:07;;;;;;;1.77;1.30;;;18.40;41.90;;;;;;4996702;28;20201;-67
2021/12/01 08:50:35;;;;;;;1.50;1.40;;;18.40;41.90;;;;;;4978792;28;20205;-68
2021/12/01 08:53:02;;;;;;;1.90;1.50;;;18.50;41.90;;;;;;4996331;28;20219;-67
2021/12/01 08:55:29;;;;;;;1.52;1.42;;;18.50;41.90;;;;;;4978593;28;20213;-67
2021/12/01 08:57:57;;;;;;;1.63;1.50;;;18.50;41.80;;;;;;4978939;28;20204;-67
2021/12/01 09:00:24;;;;;;;1.30;1.20;;;18.50;41.70;;;;;;4978805;28;20208;-67
2021/12/01 09:02:52;;;;;;;1.55;1.30;;;18.50;41.60;;;;;;4978473;28;20218;-66
2021/12/01 09:05:19;;;;;;;1.42;1.33;;;18.50;41.60;;;;;;4995795;28;20185;-67
2021/12/01 09:07:45;;;;;;;1.55;1.45;;;18.60;41.70;;;;;;4978789;28;20564;-67
2021/12/01 09:10:13;;;;;;;1.60;1.48;;;18.60;41.50;;;;;;4978596;28;20252;-67
2021/12/01 09:12:41;;;;;;;1.70;1.30;;;18.60;41.60;;;;;;4977284;28;20252;-66
2021/12/01 09:15:10;;;;;;;2.25;1.40;;;18.60;41.60;;;;;;4978307;28;20272;-67
2021/12/01 09:17:37;;;;;;;1.90;1.50;;;18.70;41.60;;;;;;4978396;28;20197;-67
2021/12/01 09:20:05;;;;;;;1.60;1.50;;;18.70;41.60;;;;;;4978213;28;20205;-67
2021/12/01 09:22:32;;;;;;;1.75;1.50;;;18.80;41.60;;;;;;4978267;28;20777;-67
2021/12/01 09:24:59;;;;;;;1.58;1.48;;;18.80;41.70;;;;;;4978089;28;20213;-67
2021/12/01 09:27:26;;;;;;;2.17;1.77;;;18.80;41.50;;;;;;4977894;28;20198;-67
2021/12/01 09:29:54;;;;;;;1.60;1.50;;;18.80;41.50;;;;;;4995798;28;20221;-67
2021/12/01 09:32:22;;;;;;;2.47;1.42;;;18.80;41.50;;;;;;4995571;28;20213;-67
2021/12/01 09:34:49;;;;;;;1.92;1.48;;;18.80;41.50;;;;;;4995442;28;20665;-67
2021/12/01 09:37:16;;;;;;;1.67;1.48;;;18.80;41.60;;;;;;4995951;28;20205;-67
2021/12/01 09:39:43;;;;;;;1.60;1.50;;;18.90;41.40;;;;;;4979013;28;20288;-66
2021/12/01 09:42:11;;;;;;;1.67;1.48;;;18.90;42.20;;;;;;4978006;28;20252;-66
2021/12/01 09:44:38;;;;;;;1.33;1.30;;;18.90;41.60;;;;;;4977721;28;20233;-67
2021/12/01 09:47:06;;;;;;;4.53;1.45;;;18.90;41.60;;;;;;4995278;28;20190;-67
2021/12/01 09:49:34;;;;;;;1.30;1.20;;;18.90;44.40;;;;;;4978096;28;20220;-67
2021/12/01 09:52:01;;;;;;;2.30;1.58;;;19.00;43.90;;;;;;4994803;28;20697;-66
2021/12/01 09:54:28;;;;;;;1.50;1.40;;;19.00;44.00;;;;;;4977475;28;20221;-67
2021/12/01 09:56:55;;;;;;;1.73;1.45;;;19.00;44.10;;;;;;4994806;28;20705;-67
2021/12/01 09:59:22;;;;;;;1.58;1.20;;;19.00;43.80;;;;;;4977576;28;20209;-67
2021/12/01 10:01:49;;;;;;;1.33;1.23;;;19.10;43.80;;;;;;4977139;28;20222;-67
2021/12/01 10:04:16;;;;;;;1.40;1.30;;;19.10;43.50;;;;;;4977325;28;20209;-67
2021/12/01 10:06:44;;;;;;;1.75;1.30;;;19.10;43.30;;;;;;4977279;28;20290;-67
2021/12/01 10:09:13;;;;;;;1.52;1.35;;;19.10;43.50;;;;;;4977383;28;20228;-67
2021/12/01 10:11:41;;;;;;;1.95;1.40;;;19.10;43.20;;;;;;4977154;28;20221;-66
2021/12/01 10:14:10;;;;;;;1.30;1.20;;;19.10;43.20;;;;;;4977249;28;20197;-67
2021/12/01 10:16:37;;;;;;;1.50;1.40;;;19.20;43.00;;;;;;4977194;28;20228;-67
2021/12/01 10:19:05;;;;;;;1.42;1.33;;;19.10;43.20;;;;;;4977337;28;20289;-67
2021/12/01 10:21:33;;;;;;;1.38;1.27;;;19.10;43.10;;;;;;4977418;28;20562;-67
2021/12/01 10:24:03;;;;;;;1.55;1.40;;;19.20;43.00;;;;;;4976516;28;20284;-66
2021/12/01 10:26:32;;;;;;;1.70;1.35;;;19.20;42.70;;;;;;4977210;28;20661;-67
2021/12/01 10:29:00;;;;;;;1.25;1.17;;;19.20;42.90;;;;;;4977102;28;20198;-67
2021/12/01 10:31:32;;;;;;;1.27;1.17;;;19.20;42.80;;;;;;4977426;28;20198;-67
2021/12/01 10:34:14;;;;;;;1.77;1.67;;;19.20;42.80;;;;;;4977019;28;20209;-67
2021/12/01 10:36:42;;;;;;;1.40;1.30;;;19.20;42.60;;;;;;4994337;28;20735;-67
2021/12/01 10:39:10;;;;;;;1.45;1.20;;;19.20;42.50;;;;;;4976836;28;20205;-67
2021/12/01 10:41:37;;;;;;;1.10;1.10;;;19.20;42.40;;;;;;4994127;28;20209;-67
2021/12/01 10:44:09;;;;;;;1.40;1.30;;;19.30;42.40;;;;;;4976686;28;20578;-67
2021/12/01 10:46:43;;;;;;;1.20;1.20;;;19.40;42.30;;;;;;4976883;28;20244;-67
2021/12/01 10:49:10;;;;;;;1.27;1.27;;;19.40;42.10;;;;;;4976871;28;20193;-67
2021/12/01 10:51:38;;;;;;;1.67;1.13;;;19.40;42.10;;;;;;4976624;28;20600;-66
2021/12/01 10:54:06;;;;;;;1.67;1.33;;;19.40;42.10;;;;;;4976624;28;20677;-67
2021/12/01 10:56:36;;;;;;;1.35;1.25;;;19.40;42.00;;;;;;4976779;28;20221;-66
2021/12/01 10:59:10;;;;;;;1.25;1.15;;;19.40;41.70;;;;;;4976611;28;20197;-66
2021/12/01 11:01:37;;;;;;;1.27;1.17;;;19.50;41.80;;;;;;4976641;28;20225;-67
2021/12/01 11:04:05;;;;;;;1.52;1.42;;;19.50;41.80;;;;;;4976665;28;20200;-67
2021/12/01 11:06:34;;;;;;;1.25;1.15;;;19.50;41.80;;;;;;4976352;28;20662;-67
2021/12/01 11:09:01;;;;;;;1.30;1.20;;;19.50;41.80;;;;;;4976395;28;20201;-67
2021/12/01 11:11:38;;;;;;;1.38;1.27;;;19.60;41.80;;;;;;4993632;28;20200;-66
2021/12/01 11:14:10;;;;;;;1.30;1.20;;;19.60;41.60;;;;;;4976546;28;20204;-66
2021/12/01 11:16:37;;;;;;;1.27;1.17;;;19.60;41.60;;;;;;4993814;28;20205;-67
2021/12/01 11:19:04;;;;;;;1.20;1.20;;;19.60;41.60;;;;;;4994119;28;20189;-66
2021/12/01 11:21:32;;;;;;;1.27;1.17;;;19.60;41.50;;;;;;4994328;28;20189;-67
2021/12/01 11:24:00;;;;;;;1.30;1.20;;;19.60;41.40;;;;;;4976536;28;20205;-67
2021/12/01 11:26:29;;;;;;;1.35;1.25;;;19.70;41.40;;;;;;4977024;28;20208;-67
2021/12/01 11:28:59;;;;;;;1.25;1.25;;;19.70;41.40;;;;;;4994493;28;20694;-67
2021/12/01 11:31:27;;;;;;;1.40;1.30;;;19.70;41.30;;;;;;4976816;28;20605;-67
2021/12/01 11:33:55;;;;;;;1.27;1.10;;;19.70;41.20;;;;;;4976659;28;20296;-67
2021/12/01 11:36:25;;;;;;;1.20;1.20;;;19.80;41.10;;;;;;4993467;28;20264;-67
2021/12/01 11:38:54;;;;;;;1.10;1.10;;;19.80;41.10;;;;;;4993914;28;20236;-67
2021/12/01 11:41:21;;;;;;;1.35;1.35;;;19.80;41.10;;;;;;4976714;28;20202;-67
2021/12/01 11:43:49;;;;;;;1.30;1.20;;;19.80;41.10;;;;;;4995903;28;20197;-67
2021/12/01 11:46:17;;;;;;;1.30;1.20;;;19.80;41.10;;;;;;4976803;28;20197;-67
2021/12/01 11:48:48;;;;;;;1.00;1.00;;;19.80;41.10;;;;;;4976419;28;20296;-67
2021/12/01 11:51:18;;;;;;;1.27;1.27;;;19.90;41.10;;;;;;4976425;28;20221;-67
2021/12/01 11:53:47;;;;;;;1.27;1.20;;;19.90;41.20;;;;;;4976919;28;20256;-67
2021/12/01 11:56:17;;;;;;;1.33;1.10;;;19.90;41.00;;;;;;4976523;28;20698;-67
2021/12/01 11:59:03;;;;;;;1.27;1.20;;;20.00;41.00;;;;;;4994239;28;20197;-67
2021/12/01 12:02:02;;;;;;;1.23;1.23;;;20.00;40.90;;;;;;4977020;28;20568;-67
2021/12/01 12:04:31;;;;;;;1.20;1.20;;;20.10;40.80;;;;;;4976610;28;20275;-67
2021/12/01 12:07:04;;;;;;;1.10;1.10;;;20.10;40.90;;;;;;4976248;28;20225;-67
2021/12/01 12:09:31;;;;;;;1.17;1.17;;;20.10;40.70;;;;;;4976460;28;20198;-67
2021/12/01 12:12:10;;;;;;;1.10;1.10;;;20.10;40.90;;;;;;4993537;28;20214;-67
2021/12/01 12:14:39;;;;;;;1.10;1.10;;;20.10;40.80;;;;;;4976134;28;20248;-67
2021/12/01 12:17:12;;;;;;;1.13;1.13;;;20.10;40.80;;;;;;4975694;28;20245;-67
2021/12/01 12:19:54;;;;;;;1.58;1.27;;;20.10;40.90;;;;;;4976194;28;20228;-67
2021/12/01 12:22:24;;;;;;;1.10;1.10;;;20.10;40.80;;;;;;4975723;28;20639;-67
2021/12/01 12:24:53;;;;;;;1.15;1.10;;;20.10;40.70;;;;;;4975834;28;20217;-67
2021/12/01 12:27:31;;;;;;;1.20;1.17;;;20.10;40.70;;;;;;4993413;28;20193;-66
2021/12/01 12:29:59;;;;;;;1.23;1.20;;;20.20;40.90;;;;;;4975579;28;20308;-67
2021/12/01 12:32:29;;;;;;;1.10;1.10;;;20.20;40.70;;;;;;4975829;28;20249;-67
2021/12/01 12:34:57;;;;;;;1.20;1.10;;;20.20;40.70;;;;;;4993239;28;20196;-67
2021/12/01 12:37:25;;;;;;;1.00;1.00;;;20.20;40.70;;;;;;4975433;28;20221;-67
2021/12/01 12:39:53;;;;;;;1.10;1.10;;;20.30;40.70;;;;;;4975865;28;20207;-67
2021/12/01 12:42:19;;;;;;;1.25;1.20;;;20.20;40.70;;;;;;4975633;28;20249;-66
2021/12/01 12:44:47;;;;;;;1.38;1.27;;;20.20;40.60;;;;;;4975312;28;20201;-67
2021/12/01 12:47:15;;;;;;;1.30;1.20;;;20.30;40.60;;;;;;4993747;28;20264;-67
2021/12/01 12:49:44;;;;;;;1.20;1.15;;;20.30;40.70;;;;;;4979340;28;20197;-67
2021/12/01 12:52:37;;;;;;;1.20;1.20;;;20.30;40.70;;;;;;4979396;28;20313;-67
2021/12/01 12:55:06;;;;;;;1.20;1.20;;;20.30;40.70;;;;;;4979014;28;20250;-66
2021/12/01 12:57:51;;;;;;;1.10;1.10;;;20.30;40.70;;;;;;4979214;28;20292;-67